Media Club - Current Value (Tim Eliot) (MP3, Photo, Lyrics, Covers)
Legal Info  
newsabout ushelp (faq)searchdirectorylinkssoftwarechartsSwitch Language
 A   B   C   D   E   F   G   H   I   J   K   L   M   N   O   P   Q   R   S   T   U   V   W   X   Y   Z   0...9 
                                                                                  
directory
border=0

  Current Value

Current Value
  Band/Artist:  Current Value
Country:  Germany
Genre:  Electronica
Style:
URL's:  myspace.com/CurrentValue
 www.Current-Value.net
 www.discogs.com/artist/4937-Current-Value
find track in this albums
Discography:
year title tracks added
(updated)
 Albums
2013 Stay On This Planet 2013 12 19.09.2013
2012 Quantum Physics 2012 10 31.10.2012
2011 Revolt & Riot (Split) 2011 9 26.02.2012
2009 2012: the Day of Silence (Vinyl) 2009 10 29.01.2012
2001 Current Value 2001 10 29.01.2012
2000 In A Far Future 2000 9 29.01.2012
1999 Seeds Of Mutation 1999 9 30.01.2010
1998 Frequency Hunt 1998 9 29.01.2012
 Singles, Mini-CD's, EP's
2015 Nitro (WEB EP) 2015 6 17.02.2015
2012 Crude Chronicles (EP) 2012 5 26.02.2012
01.09.2012
2012 Deacon (EP) 2012 4 30.08.2012
2012 Megalomania (EP) (feat. The Panacea) 2012 5 30.08.2012
2012 Mercury / Captain / The Reading (EP) 2012 3 31.10.2012
2010 All Ends (EP) (Split) 2010
All Ends (EP) (Split) [Split with ]
4 29.01.2012
2010 Edge Of Dreams / Sphere Unknown (12 2010 2 29.01.2012
2009 Agent Of Evolution / Love All The People (Single) (Split) 2009 2 29.01.2012
2009 Bravery / Echolot (Single) 2009 2 29.01.2012
2009 Contact (sampler of LP 2009 1 29.01.2012
2009 Pressure Drop (EP) 2009 4 29.01.2012
2009 Sparse Land (EP) (Split) 2009
Sparse Land (EP) (Split) [Split with ]
4 29.01.2012
2009 The Power / Unleashed (Single) 2009 2 29.01.2012
2009 The Rebirth (Vinyl EP, part 1) (Split) 2009 2 29.01.2012
2009 The Rebirth (Vinyl EP, part 2) (Split) 2009 2 29.01.2012
2009 The Way Of The Future (EP) (Split) 2009 4 29.01.2012
2009 You Can't Play God EP (EP) 2009 4 29.01.2012
2009 You Need A Therapist / Overclock (12 2009 2 29.01.2012
2008 Death Marching (EP) 2008 4 29.01.2012
2008 Symptomless Coma (Vinyl EP) 2008 4 29.01.2012
2008 Tempest / Bathwater (Split) 2008 2 29.01.2012
2008 The Empowered Peace (EP) 2008 4 29.01.2012
2007 Tunnel Vision / End Of Days 2007 2 29.03.2007
2007 Brainwash / Ghost Kill (12 2007 2 29.03.2007
2007 Consciousness / One In a Million (Vinyl Single) 2007 2 29.01.2012
2007 Dub One & Current Value (Vinyl Single) (Split) 2007 2 29.01.2012
2007 Evil Has A Name (EP) (Split) 2007 4 29.01.2012
2007 Fear & XTC / The Fallen (Single) 2007 2 29.01.2012
2007 Inner Demons / The Forbidden Room (Single) (Split) 2007 2 29.01.2012
2007 Revealing The Consealed (EP) 2007 4 29.01.2012
2007 The Power / Unleashed (Vinyl Single) 2007 2 29.01.2012
2007 Sickness & Suffering / Tektonic (12 2007 2 29.01.2012
2007 Unpardonable Deeds / Ion Storm (Single) 2007 2 29.01.2012
2006 60.000 Thoughts / The Unspoken (Single) 2006 2 29.01.2012
2006 Anticitizen / Foreign Skin (Single) 2006 2 29.01.2012
2006 Excellence / Twisted (Vinyl Single) 2006 2 29.01.2012
2006 Fallen Heart (Single) 2006 1 29.01.2012
2006 Full Spectrum Warrior / Strange Peace (Vinyl Single) 2006 2 29.01.2012
2006 PSI Investigation / Mind Bullet (12 2006 2 29.01.2012
2006 The Edge Of The Cliff / Dark Rain (Single) 2006 2 29.01.2012
2006 The Indivisible Force / Whats In It (Single) 2006 2 29.01.2012
2005 Freeway / Simple Things (12 2005 2 29.01.2012
2005 Into The Light / Deep Digger (Single) 2005 2 29.01.2012
2003 4.09 (EP) 2003 3 29.01.2012
2003 Herd Instinct / A.I. (12 2003 2 29.01.2012
2003 Simon Krach (EP) (Split) 2003
Simon Krach (EP) (Split) [Split with ]
2 29.01.2012
1998 Creative Robot (Single) 1998 2 29.01.2012
1998 Falling Into It / Sub Sonic (Single) 1998 2 29.01.2012
1997 Skybreaker / T.S. Overdose (Single) 1997 2 29.01.2012
 Tributes
L 0.00 / D 0.00 2007 2 29.01.2012
L 0.00 / D 0.00 2011 2 20.11.2012
L 0.00 / D 0.00 2011 2 20.11.2012
Status: Guest
LOOK ALSO
more info
HISTORY OF ADDITIONS
Mn Tu We Th Fr Sa Su
         1  2  3
 4  5  6  7  8  9  10
 11  12  13  14  15  16  17
 18  19  20  21  22  23  24
 25  26  27  28  29  30  31
go top

Media ClubCreated by TDG